Pleasantville, IA

3:54 AM CDT on October 24, 2014 (GMT -0500)
Newton Municipal | Change Station
CLOSE
Current Station
Airport
Location: Newton,
Elevation: 951 ft
Nearby Weather Stations
Active Advisory: Dense Fog Advisory Active Notice: Public Information Statement

Elev 951 ft 41.67 °N, 93.02 °W | Updated 19 minutes ago

Fog
Fog
50 °F
Feels Like 50 °F
N
6
Wind Variable Wind from South

Today
High -- | Low -- °F
--% Chance of Precip.
Yesterday
High -- | Low -- °F
Precip. -- in
7:35 AM 6:18 PM
New Moon, 0% visible
Pressure 30.03 in
Visibility 0.2 miles
Clouds Overcast 200 ft
Dew Point 50 °F
Humidity 100%
Rainfall 0.00 in
Snow Depth Not available.
UV 0 out of 12
Pollen .30 out of 12
Air Quality Not available.
Flu Activity Sporadic
METAR KTNU 240835Z AUTO 18005KT M1/4SM FG OVC002 10/10 A3003 RMK AO2

More Conditions Fewer Conditions

Pressure 30.03 in
Visibility 0.2 miles
Clouds Overcast 200 ft
Dew Point 50 °F
Humidity 100%
Rainfall 0.00 in
Snow Depth Not available.
UV 0 out of 12
Pollen .30 out of 12
Air Quality Not available.
Flu Activity Sporadic
METAR KTNU 240835Z AUTO 18005KT M1/4SM FG OVC002 10/10 A3003 RMK AO2

More Conditions Fewer Conditions

10-Day Weather Forecast

Almanac

Astronomy

Oct. 24, 2014 Rise Set
Actual Time 7:35 AM CDT 6:18 PM CDT
Civil Twilight 7:06 AM CDT 6:46 PM CDT
Nautical Twilight 6:34 AM CDT 7:19 PM CDT
Astronomical Twilight 6:02 AM CDT 7:51 PM CDT
Moon 8:15 AM CDT 6:58 PM CDT
Length of Visible Light 11h 40m
Length of Day
10h 43m
Tomorrow will be 2m 34s shorter.
New Moon, 0% of the Moon is Illuminated
Today
New Moon
Oct 30
First Quarter
Nov 6
Full
Nov 14
Last Quarter
Nov 22
New

Today's Extremes

State Highs State Lows

Community

WunderPhotos

Upload Photos

1,764,511 photos uploaded!

WunderBlogs® & News

Nearby

Snow Depth

Station Depth Elevation
No new snow has been reported.

Earthquake Activity

City Distance Mag. Time & Date
No recent earthquake activity has been reported nearby.
Minimum magnitude displayed is 2.5.

Coastal Water Temperatures

Place Temperature
No Stations Reporting

Nearby Weather Stations